sensor_id;sensor_type;location;lat;lon;timestamp;P1;durP1;ratioP1;P2;durP2;ratioP2
2257;SDS011;1136;51.574;7.706;2023-04-06T00:00:08;14.43;;;12.40;;
2257;SDS011;1136;51.574;7.706;2023-04-06T00:02:36;16.63;;;13.17;;
2257;SDS011;1136;51.574;7.706;2023-04-06T00:05:03;16.53;;;12.90;;
2257;SDS011;1136;51.574;7.706;2023-04-06T00:07:30;14.80;;;13.10;;
2257;SDS011;1136;51.574;7.706;2023-04-06T00:09:56;16.77;;;13.40;;
2257;SDS011;1136;51.574;7.706;2023-04-06T00:12:23;16.70;;;12.40;;
2257;SDS011;1136;51.574;7.706;2023-04-06T00:14:50;15.10;;;13.17;;
2257;SDS011;1136;51.574;7.706;2023-04-06T00:17:17;19.90;;;15.00;;
2257;SDS011;1136;51.574;7.706;2023-04-06T00:19:44;22.03;;;14.23;;
2257;SDS011;1136;51.574;7.706;2023-04-06T00:22:10;17.10;;;12.43;;
2257;SDS011;1136;51.574;7.706;2023-04-06T00:24:37;18.20;;;13.73;;
2257;SDS011;1136;51.574;7.706;2023-04-06T00:27:04;19.70;;;14.87;;
2257;SDS011;1136;51.574;7.706;2023-04-06T00:29:30;24.70;;;16.27;;
2257;SDS011;1136;51.574;7.706;2023-04-06T00:31:57;16.27;;;14.50;;
2257;SDS011;1136;51.574;7.706;2023-04-06T00:34:24;23.80;;;14.10;;
2257;SDS011;1136;51.574;7.706;2023-04-06T00:36:51;19.50;;;15.90;;
2257;SDS011;1136;51.574;7.706;2023-04-06T00:39:18;17.37;;;13.73;;
2257;SDS011;1136;51.574;7.706;2023-04-06T00:41:48;16.77;;;13.67;;
2257;SDS011;1136;51.574;7.706;2023-04-06T00:44:16;20.50;;;14.47;;
2257;SDS011;1136;51.574;7.706;2023-04-06T00:46:43;21.40;;;16.40;;
2257;SDS011;1136;51.574;7.706;2023-04-06T00:49:10;21.03;;;14.67;;
2257;SDS011;1136;51.574;7.706;2023-04-06T00:51:37;18.40;;;15.87;;
2257;SDS011;1136;51.574;7.706;2023-04-06T00:54:04;18.83;;;14.73;;
2257;SDS011;1136;51.574;7.706;2023-04-06T00:56:31;16.77;;;14.13;;
2257;SDS011;1136;51.574;7.706;2023-04-06T00:58:58;19.57;;;15.20;;
2257;SDS011;1136;51.574;7.706;2023-04-06T01:01:25;21.57;;;15.90;;
2257;SDS011;1136;51.574;7.706;2023-04-06T01:03:52;19.50;;;15.07;;
2257;SDS011;1136;51.574;7.706;2023-04-06T01:06:20;19.33;;;15.20;;
2257;SDS011;1136;51.574;7.706;2023-04-06T01:08:46;16.23;;;13.80;;
2257;SDS011;1136;51.574;7.706;2023-04-06T01:11:13;17.80;;;15.27;;
2257;SDS011;1136;51.574;7.706;2023-04-06T01:13:40;22.60;;;15.30;;
2257;SDS011;1136;51.574;7.706;2023-04-06T01:16:07;22.07;;;15.17;;
2257;SDS011;1136;51.574;7.706;2023-04-06T01:18:33;24.40;;;15.37;;
2257;SDS011;1136;51.574;7.706;2023-04-06T01:21:01;18.83;;;15.53;;
2257;SDS011;1136;51.574;7.706;2023-04-06T01:23:28;18.53;;;14.73;;
2257;SDS011;1136;51.574;7.706;2023-04-06T01:25:55;23.50;;;16.20;;
2257;SDS011;1136;51.574;7.706;2023-04-06T01:28:21;22.43;;;16.67;;
2257;SDS011;1136;51.574;7.706;2023-04-06T01:30:49;20.07;;;15.60;;
2257;SDS011;1136;51.574;7.706;2023-04-06T01:33:15;21.93;;;16.40;;
2257;SDS011;1136;51.574;7.706;2023-04-06T01:35:42;21.67;;;16.07;;
2257;SDS011;1136;51.574;7.706;2023-04-06T01:38:09;22.03;;;16.30;;
2257;SDS011;1136;51.574;7.706;2023-04-06T01:40:36;24.10;;;17.10;;
2257;SDS011;1136;51.574;7.706;2023-04-06T01:43:03;19.93;;;16.03;;
2257;SDS011;1136;51.574;7.706;2023-04-06T01:45:29;19.20;;;16.57;;
2257;SDS011;1136;51.574;7.706;2023-04-06T01:47:56;21.40;;;16.70;;
2257;SDS011;1136;51.574;7.706;2023-04-06T01:50:23;21.20;;;15.83;;
2257;SDS011;1136;51.574;7.706;2023-04-06T01:52:53;22.70;;;15.73;;
2257;SDS011;1136;51.574;7.706;2023-04-06T01:55:19;20.07;;;16.43;;
2257;SDS011;1136;51.574;7.706;2023-04-06T01:57:46;23.17;;;15.40;;
2257;SDS011;1136;51.574;7.706;2023-04-06T02:00:13;19.67;;;14.43;;
2257;SDS011;1136;51.574;7.706;2023-04-06T02:02:40;19.97;;;15.10;;
2257;SDS011;1136;51.574;7.706;2023-04-06T02:05:07;19.53;;;15.30;;
2257;SDS011;1136;51.574;7.706;2023-04-06T02:07:34;22.07;;;14.87;;
2257;SDS011;1136;51.574;7.706;2023-04-06T02:10:01;17.87;;;13.97;;
2257;SDS011;1136;51.574;7.706;2023-04-06T02:12:29;17.90;;;14.20;;
2257;SDS011;1136;51.574;7.706;2023-04-06T02:14:57;17.07;;;14.13;;
2257;SDS011;1136;51.574;7.706;2023-04-06T02:17:24;16.77;;;13.63;;
2257;SDS011;1136;51.574;7.706;2023-04-06T02:19:50;20.63;;;13.57;;
2257;SDS011;1136;51.574;7.706;2023-04-06T02:22:17;20.17;;;13.00;;
2257;SDS011;1136;51.574;7.706;2023-04-06T02:24:44;16.50;;;12.73;;
2257;SDS011;1136;51.574;7.706;2023-04-06T02:27:12;14.07;;;12.00;;
2257;SDS011;1136;51.574;7.706;2023-04-06T02:29:39;21.03;;;13.40;;
2257;SDS011;1136;51.574;7.706;2023-04-06T02:32:06;17.03;;;12.87;;
2257;SDS011;1136;51.574;7.706;2023-04-06T02:34:33;15.83;;;13.00;;
2257;SDS011;1136;51.574;7.706;2023-04-06T02:37:00;21.03;;;12.37;;
2257;SDS011;1136;51.574;7.706;2023-04-06T02:39:27;16.37;;;13.40;;
2257;SDS011;1136;51.574;7.706;2023-04-06T02:41:54;19.67;;;13.33;;
2257;SDS011;1136;51.574;7.706;2023-04-06T02:44:22;17.33;;;13.27;;
2257;SDS011;1136;51.574;7.706;2023-04-06T02:46:49;15.67;;;13.23;;
2257;SDS011;1136;51.574;7.706;2023-04-06T02:49:16;15.23;;;12.63;;
2257;SDS011;1136;51.574;7.706;2023-04-06T02:51:43;16.13;;;14.00;;
2257;SDS011;1136;51.574;7.706;2023-04-06T02:54:09;19.07;;;13.20;;
2257;SDS011;1136;51.574;7.706;2023-04-06T02:56:36;15.80;;;12.30;;
2257;SDS011;1136;51.574;7.706;2023-04-06T02:59:03;14.00;;;12.60;;
2257;SDS011;1136;51.574;7.706;2023-04-06T03:01:29;16.50;;;13.27;;
2257;SDS011;1136;51.574;7.706;2023-04-06T03:03:56;15.83;;;11.97;;
2257;SDS011;1136;51.574;7.706;2023-04-06T03:06:23;18.03;;;13.60;;
2257;SDS011;1136;51.574;7.706;2023-04-06T03:08:50;19.13;;;13.60;;
2257;SDS011;1136;51.574;7.706;2023-04-06T03:11:16;17.60;;;13.53;;
2257;SDS011;1136;51.574;7.706;2023-04-06T03:13:43;18.40;;;14.03;;
2257;SDS011;1136;51.574;7.706;2023-04-06T03:16:13;17.73;;;14.17;;
2257;SDS011;1136;51.574;7.706;2023-04-06T03:18:39;17.50;;;13.20;;
2257;SDS011;1136;51.574;7.706;2023-04-06T03:21:06;17.93;;;13.43;;
2257;SDS011;1136;51.574;7.706;2023-04-06T03:23:33;16.90;;;14.43;;
2257;SDS011;1136;51.574;7.706;2023-04-06T03:26:00;22.30;;;12.73;;
2257;SDS011;1136;51.574;7.706;2023-04-06T03:28:27;16.10;;;12.60;;
2257;SDS011;1136;51.574;7.706;2023-04-06T03:30:56;16.87;;;12.47;;
2257;SDS011;1136;51.574;7.706;2023-04-06T03:33:23;17.03;;;13.47;;
2257;SDS011;1136;51.574;7.706;2023-04-06T03:35:50;14.73;;;12.43;;
2257;SDS011;1136;51.574;7.706;2023-04-06T03:38:17;17.40;;;12.63;;
2257;SDS011;1136;51.574;7.706;2023-04-06T03:40:44;21.10;;;12.43;;
2257;SDS011;1136;51.574;7.706;2023-04-06T03:43:13;13.50;;;11.70;;
2257;SDS011;1136;51.574;7.706;2023-04-06T03:45:39;14.47;;;11.80;;
2257;SDS011;1136;51.574;7.706;2023-04-06T03:48:06;15.20;;;11.57;;
2257;SDS011;1136;51.574;7.706;2023-04-06T03:50:33;14.33;;;10.60;;
2257;SDS011;1136;51.574;7.706;2023-04-06T03:53:00;13.00;;;10.20;;
2257;SDS011;1136;51.574;7.706;2023-04-06T03:55:29;13.23;;;10.90;;
2257;SDS011;1136;51.574;7.706;2023-04-06T03:57:56;13.87;;;10.50;;
2257;SDS011;1136;51.574;7.706;2023-04-06T04:00:22;13.43;;;11.03;;
2257;SDS011;1136;51.574;7.706;2023-04-06T04:02:49;16.80;;;11.50;;
2257;SDS011;1136;51.574;7.706;2023-04-06T04:05:16;12.17;;;10.43;;
2257;SDS011;1136;51.574;7.706;2023-04-06T04:07:43;14.77;;;11.53;;
2257;SDS011;1136;51.574;7.706;2023-04-06T04:10:09;17.13;;;12.10;;
2257;SDS011;1136;51.574;7.706;2023-04-06T04:12:36;17.37;;;11.30;;
2257;SDS011;1136;51.574;7.706;2023-04-06T04:15:03;14.40;;;12.00;;
2257;SDS011;1136;51.574;7.706;2023-04-06T04:17:30;19.00;;;13.03;;
2257;SDS011;1136;51.574;7.706;2023-04-06T04:19:56;24.30;;;13.30;;
2257;SDS011;1136;51.574;7.706;2023-04-06T04:22:23;16.03;;;12.47;;
2257;SDS011;1136;51.574;7.706;2023-04-06T04:24:50;13.23;;;11.87;;
2257;SDS011;1136;51.574;7.706;2023-04-06T04:27:16;15.37;;;12.27;;
2257;SDS011;1136;51.574;7.706;2023-04-06T04:29:43;13.90;;;12.40;;
2257;SDS011;1136;51.574;7.706;2023-04-06T04:32:10;17.87;;;13.97;;
2257;SDS011;1136;51.574;7.706;2023-04-06T04:34:36;16.90;;;12.83;;
2257;SDS011;1136;51.574;7.706;2023-04-06T04:37:06;19.20;;;13.60;;
2257;SDS011;1136;51.574;7.706;2023-04-06T04:39:33;14.63;;;12.33;;
2257;SDS011;1136;51.574;7.706;2023-04-06T04:41:59;14.20;;;11.80;;
2257;SDS011;1136;51.574;7.706;2023-04-06T04:44:26;14.60;;;11.83;;
2257;SDS011;1136;51.574;7.706;2023-04-06T04:46:53;15.63;;;12.90;;
2257;SDS011;1136;51.574;7.706;2023-04-06T04:49:19;16.03;;;11.93;;
2257;SDS011;1136;51.574;7.706;2023-04-06T04:51:46;15.50;;;12.17;;
2257;SDS011;1136;51.574;7.706;2023-04-06T04:54:13;16.30;;;12.30;;
2257;SDS011;1136;51.574;7.706;2023-04-06T04:56:40;20.63;;;11.77;;
2257;SDS011;1136;51.574;7.706;2023-04-06T04:59:07;14.43;;;12.17;;
2257;SDS011;1136;51.574;7.706;2023-04-06T05:01:34;14.57;;;11.20;;
2257;SDS011;1136;51.574;7.706;2023-04-06T05:04:19;16.07;;;12.70;;
2257;SDS011;1136;51.574;7.706;2023-04-06T05:06:46;15.53;;;13.07;;
2257;SDS011;1136;51.574;7.706;2023-04-06T05:09:13;18.50;;;13.17;;
2257;SDS011;1136;51.574;7.706;2023-04-06T05:11:40;21.57;;;15.07;;
2257;SDS011;1136;51.574;7.706;2023-04-06T05:14:07;17.43;;;12.90;;
2257;SDS011;1136;51.574;7.706;2023-04-06T05:16:33;19.23;;;13.57;;
2257;SDS011;1136;51.574;7.706;2023-04-06T05:19:00;20.03;;;14.77;;
2257;SDS011;1136;51.574;7.706;2023-04-06T05:21:27;20.90;;;14.00;;
2257;SDS011;1136;51.574;7.706;2023-04-06T05:23:54;24.00;;;14.50;;
2257;SDS011;1136;51.574;7.706;2023-04-06T05:26:21;17.13;;;14.03;;
2257;SDS011;1136;51.574;7.706;2023-04-06T05:28:47;20.63;;;13.87;;
2257;SDS011;1136;51.574;7.706;2023-04-06T05:31:14;17.67;;;14.73;;
2257;SDS011;1136;51.574;7.706;2023-04-06T05:33:42;20.40;;;13.50;;
2257;SDS011;1136;51.574;7.706;2023-04-06T05:36:09;17.83;;;14.40;;
2257;SDS011;1136;51.574;7.706;2023-04-06T05:38:40;20.03;;;14.20;;
2257;SDS011;1136;51.574;7.706;2023-04-06T05:41:06;17.87;;;13.40;;
2257;SDS011;1136;51.574;7.706;2023-04-06T05:43:33;21.93;;;13.23;;
2257;SDS011;1136;51.574;7.706;2023-04-06T05:46:00;18.50;;;14.03;;
2257;SDS011;1136;51.574;7.706;2023-04-06T05:48:26;24.73;;;15.17;;
2257;SDS011;1136;51.574;7.706;2023-04-06T05:50:53;19.10;;;13.97;;
2257;SDS011;1136;51.574;7.706;2023-04-06T05:53:21;20.07;;;13.70;;
2257;SDS011;1136;51.574;7.706;2023-04-06T05:55:48;15.57;;;13.87;;
2257;SDS011;1136;51.574;7.706;2023-04-06T05:58:14;19.07;;;13.50;;
2257;SDS011;1136;51.574;7.706;2023-04-06T06:00:43;17.27;;;13.40;;
2257;SDS011;1136;51.574;7.706;2023-04-06T06:03:12;29.90;;;13.30;;
2257;SDS011;1136;51.574;7.706;2023-04-06T06:05:39;15.40;;;12.30;;
2257;SDS011;1136;51.574;7.706;2023-04-06T06:08:05;19.33;;;13.93;;
2257;SDS011;1136;51.574;7.706;2023-04-06T06:10:33;19.47;;;13.90;;
2257;SDS011;1136;51.574;7.706;2023-04-06T06:13:00;18.40;;;13.30;;
2257;SDS011;1136;51.574;7.706;2023-04-06T06:15:27;18.27;;;12.90;;
2257;SDS011;1136;51.574;7.706;2023-04-06T06:17:54;15.57;;;12.03;;
2257;SDS011;1136;51.574;7.706;2023-04-06T06:20:21;16.10;;;13.00;;
2257;SDS011;1136;51.574;7.706;2023-04-06T06:22:48;13.40;;;11.60;;
2257;SDS011;1136;51.574;7.706;2023-04-06T06:25:15;16.70;;;11.77;;
2257;SDS011;1136;51.574;7.706;2023-04-06T06:27:42;16.20;;;12.13;;
2257;SDS011;1136;51.574;7.706;2023-04-06T06:30:09;14.67;;;11.57;;
2257;SDS011;1136;51.574;7.706;2023-04-06T06:32:36;15.27;;;11.23;;
2257;SDS011;1136;51.574;7.706;2023-04-06T06:35:03;17.53;;;12.30;;
2257;SDS011;1136;51.574;7.706;2023-04-06T06:37:30;17.90;;;12.40;;
2257;SDS011;1136;51.574;7.706;2023-04-06T06:39:57;15.67;;;12.60;;
2257;SDS011;1136;51.574;7.706;2023-04-06T06:42:24;17.80;;;10.97;;
2257;SDS011;1136;51.574;7.706;2023-04-06T06:44:50;15.00;;;10.13;;
2257;SDS011;1136;51.574;7.706;2023-04-06T06:47:20;16.70;;;10.40;;
2257;SDS011;1136;51.574;7.706;2023-04-06T06:49:46;11.30;;;9.00;;
2257;SDS011;1136;51.574;7.706;2023-04-06T06:52:13;13.27;;;9.67;;
2257;SDS011;1136;51.574;7.706;2023-04-06T06:54:40;16.30;;;9.73;;
2257;SDS011;1136;51.574;7.706;2023-04-06T06:57:06;9.73;;;8.73;;
2257;SDS011;1136;51.574;7.706;2023-04-06T06:59:33;9.63;;;7.50;;
2257;SDS011;1136;51.574;7.706;2023-04-06T07:02:00;8.77;;;7.07;;
2257;SDS011;1136;51.574;7.706;2023-04-06T07:04:27;8.80;;;7.77;;
2257;SDS011;1136;51.574;7.706;2023-04-06T07:06:53;9.70;;;7.37;;
2257;SDS011;1136;51.574;7.706;2023-04-06T07:09:20;12.20;;;7.60;;
2257;SDS011;1136;51.574;7.706;2023-04-06T07:11:47;12.50;;;7.20;;
2257;SDS011;1136;51.574;7.706;2023-04-06T07:14:15;9.07;;;7.60;;
2257;SDS011;1136;51.574;7.706;2023-04-06T07:16:42;7.73;;;7.00;;
2257;SDS011;1136;51.574;7.706;2023-04-06T07:19:11;8.20;;;6.70;;
2257;SDS011;1136;51.574;7.706;2023-04-06T07:21:38;8.83;;;7.73;;
2257;SDS011;1136;51.574;7.706;2023-04-06T07:24:05;7.13;;;6.43;;
2257;SDS011;1136;51.574;7.706;2023-04-06T07:26:32;7.70;;;6.80;;
2257;SDS011;1136;51.574;7.706;2023-04-06T07:28:59;9.70;;;6.60;;
2257;SDS011;1136;51.574;7.706;2023-04-06T07:31:25;8.10;;;7.30;;
2257;SDS011;1136;51.574;7.706;2023-04-06T07:33:52;11.47;;;7.80;;
2257;SDS011;1136;51.574;7.706;2023-04-06T07:36:20;10.27;;;7.57;;
2257;SDS011;1136;51.574;7.706;2023-04-06T07:38:46;8.57;;;6.97;;
2257;SDS011;1136;51.574;7.706;2023-04-06T07:41:13;10.13;;;7.40;;
2257;SDS011;1136;51.574;7.706;2023-04-06T07:43:40;11.40;;;7.30;;
2257;SDS011;1136;51.574;7.706;2023-04-06T07:46:06;9.50;;;7.90;;
2257;SDS011;1136;51.574;7.706;2023-04-06T07:48:33;8.03;;;7.33;;
2257;SDS011;1136;51.574;7.706;2023-04-06T07:51:01;8.13;;;6.63;;
2257;SDS011;1136;51.574;7.706;2023-04-06T07:53:28;9.17;;;7.30;;
2257;SDS011;1136;51.574;7.706;2023-04-06T07:55:55;10.93;;;7.90;;
2257;SDS011;1136;51.574;7.706;2023-04-06T07:58:22;9.23;;;8.30;;
2257;SDS011;1136;51.574;7.706;2023-04-06T08:00:49;11.53;;;8.33;;
2257;SDS011;1136;51.574;7.706;2023-04-06T08:03:16;8.83;;;7.47;;
2257;SDS011;1136;51.574;7.706;2023-04-06T08:05:44;8.10;;;6.23;;
2257;SDS011;1136;51.574;7.706;2023-04-06T08:08:10;9.87;;;7.87;;
2257;SDS011;1136;51.574;7.706;2023-04-06T08:10:37;9.03;;;7.97;;
2257;SDS011;1136;51.574;7.706;2023-04-06T08:13:04;10.50;;;7.70;;
2257;SDS011;1136;51.574;7.706;2023-04-06T08:15:30;8.70;;;7.00;;
2257;SDS011;1136;51.574;7.706;2023-04-06T08:17:57;9.07;;;7.83;;
2257;SDS011;1136;51.574;7.706;2023-04-06T08:20:24;10.30;;;7.80;;
2257;SDS011;1136;51.574;7.706;2023-04-06T08:22:50;11.03;;;8.37;;
2257;SDS011;1136;51.574;7.706;2023-04-06T08:25:18;8.93;;;7.83;;
2257;SDS011;1136;51.574;7.706;2023-04-06T08:27:45;9.00;;;7.90;;
2257;SDS011;1136;51.574;7.706;2023-04-06T08:30:12;7.67;;;6.87;;
2257;SDS011;1136;51.574;7.706;2023-04-06T08:32:41;12.90;;;9.27;;
2257;SDS011;1136;51.574;7.706;2023-04-06T08:35:08;12.20;;;8.17;;
2257;SDS011;1136;51.574;7.706;2023-04-06T08:37:35;9.00;;;8.10;;
2257;SDS011;1136;51.574;7.706;2023-04-06T08:40:02;10.23;;;8.33;;
2257;SDS011;1136;51.574;7.706;2023-04-06T08:42:32;10.57;;;7.63;;
2257;SDS011;1136;51.574;7.706;2023-04-06T08:44:59;8.90;;;7.67;;
2257;SDS011;1136;51.574;7.706;2023-04-06T08:47:26;9.90;;;8.47;;
2257;SDS011;1136;51.574;7.706;2023-04-06T08:49:53;12.77;;;8.87;;
2257;SDS011;1136;51.574;7.706;2023-04-06T08:52:20;9.97;;;8.70;;
2257;SDS011;1136;51.574;7.706;2023-04-06T08:54:46;10.23;;;8.97;;
2257;SDS011;1136;51.574;7.706;2023-04-06T08:57:13;9.73;;;8.23;;
2257;SDS011;1136;51.574;7.706;2023-04-06T08:59:41;10.10;;;8.30;;
2257;SDS011;1136;51.574;7.706;2023-04-06T09:02:08;12.67;;;9.53;;
2257;SDS011;1136;51.574;7.706;2023-04-06T09:04:44;11.27;;;9.70;;
2257;SDS011;1136;51.574;7.706;2023-04-06T09:07:13;10.90;;;9.00;;
2257;SDS011;1136;51.574;7.706;2023-04-06T09:09:40;11.37;;;8.93;;
2257;SDS011;1136;51.574;7.706;2023-04-06T09:12:29;9.50;;;8.60;;
2257;SDS011;1136;51.574;7.706;2023-04-06T09:14:57;10.97;;;9.23;;
2257;SDS011;1136;51.574;7.706;2023-04-06T09:17:27;9.97;;;8.93;;
2257;SDS011;1136;51.574;7.706;2023-04-06T09:19:59;14.40;;;9.87;;
2257;SDS011;1136;51.574;7.706;2023-04-06T09:22:35;16.40;;;11.30;;
2257;SDS011;1136;51.574;7.706;2023-04-06T09:25:02;11.33;;;10.20;;
2257;SDS011;1136;51.574;7.706;2023-04-06T09:27:33;14.80;;;11.23;;
2257;SDS011;1136;51.574;7.706;2023-04-06T09:30:11;11.40;;;10.20;;
2257;SDS011;1136;51.574;7.706;2023-04-06T09:32:58;11.73;;;10.40;;
2257;SDS011;1136;51.574;7.706;2023-04-06T09:35:26;15.27;;;13.30;;
2257;SDS011;1136;51.574;7.706;2023-04-06T09:37:53;13.10;;;11.70;;
2257;SDS011;1136;51.574;7.706;2023-04-06T09:40:21;12.10;;;10.90;;
2257;SDS011;1136;51.574;7.706;2023-04-06T09:42:49;12.10;;;10.90;;
2257;SDS011;1136;51.574;7.706;2023-04-06T09:45:19;14.07;;;12.67;;
2257;SDS011;1136;51.574;7.706;2023-04-06T09:47:47;17.00;;;15.20;;
2257;SDS011;1136;51.574;7.706;2023-04-06T09:50:14;14.30;;;12.80;;
2257;SDS011;1136;51.574;7.706;2023-04-06T09:52:46;14.87;;;13.37;;
2257;SDS011;1136;51.574;7.706;2023-04-06T09:55:17;13.20;;;11.90;;
2257;SDS011;1136;51.574;7.706;2023-04-06T09:57:57;13.40;;;11.20;;
2257;SDS011;1136;51.574;7.706;2023-04-06T10:00:29;12.37;;;10.87;;
2257;SDS011;1136;51.574;7.706;2023-04-06T10:05:52;11.03;;;9.93;;
2257;SDS011;1136;51.574;7.706;2023-04-06T10:08:22;12.03;;;10.67;;
2257;SDS011;1136;51.574;7.706;2023-04-06T10:10:51;11.07;;;10.03;;
2257;SDS011;1136;51.574;7.706;2023-04-06T10:13:18;11.60;;;10.40;;
2257;SDS011;1136;51.574;7.706;2023-04-06T10:15:45;10.70;;;9.63;;
2257;SDS011;1136;51.574;7.706;2023-04-06T10:18:13;10.23;;;9.23;;
2257;SDS011;1136;51.574;7.706;2023-04-06T10:20:47;12.37;;;10.10;;
2257;SDS011;1136;51.574;7.706;2023-04-06T10:25:56;11.27;;;9.87;;
2257;SDS011;1136;51.574;7.706;2023-04-06T10:28:24;13.40;;;10.33;;
2257;SDS011;1136;51.574;7.706;2023-04-06T10:31:01;12.13;;;10.93;;
2257;SDS011;1136;51.574;7.706;2023-04-06T10:33:31;13.77;;;9.73;;
2257;SDS011;1136;51.574;7.706;2023-04-06T10:36:13;9.57;;;8.60;;
2257;SDS011;1136;51.574;7.706;2023-04-06T10:38:41;12.77;;;9.87;;
2257;SDS011;1136;51.574;7.706;2023-04-06T10:41:09;9.53;;;8.57;;
2257;SDS011;1136;51.574;7.706;2023-04-06T10:43:37;12.70;;;9.70;;
2257;SDS011;1136;51.574;7.706;2023-04-06T10:46:05;13.00;;;10.80;;
2257;SDS011;1136;51.574;7.706;2023-04-06T10:48:43;12.07;;;10.90;;
2257;SDS011;1136;51.574;7.706;2023-04-06T10:51:15;11.43;;;10.20;;
2257;SDS011;1136;51.574;7.706;2023-04-06T10:53:44;13.93;;;10.33;;
2257;SDS011;1136;51.574;7.706;2023-04-06T10:56:13;11.07;;;9.97;;
2257;SDS011;1136;51.574;7.706;2023-04-06T10:58:59;11.70;;;10.50;;
2257;SDS011;1136;51.574;7.706;2023-04-06T11:01:26;11.90;;;10.80;;
2257;SDS011;1136;51.574;7.706;2023-04-06T11:03:54;16.53;;;12.60;;
2257;SDS011;1136;51.574;7.706;2023-04-06T11:06:22;15.77;;;12.30;;
2257;SDS011;1136;51.574;7.706;2023-04-06T11:08:51;13.03;;;11.47;;
2257;SDS011;1136;51.574;7.706;2023-04-06T11:11:19;14.90;;;12.43;;
2257;SDS011;1136;51.574;7.706;2023-04-06T11:13:49;14.90;;;13.40;;
2257;SDS011;1136;51.574;7.706;2023-04-06T11:18:51;17.47;;;14.07;;
2257;SDS011;1136;51.574;7.706;2023-04-06T11:21:19;19.40;;;14.37;;
2257;SDS011;1136;51.574;7.706;2023-04-06T11:23:47;16.80;;;14.20;;
2257;SDS011;1136;51.574;7.706;2023-04-06T11:26:14;30.93;;;22.70;;
2257;SDS011;1136;51.574;7.706;2023-04-06T11:28:41;17.43;;;15.23;;
2257;SDS011;1136;51.574;7.706;2023-04-06T11:31:09;16.50;;;14.33;;
2257;SDS011;1136;51.574;7.706;2023-04-06T11:33:38;16.80;;;14.20;;
2257;SDS011;1136;51.574;7.706;2023-04-06T11:36:05;14.87;;;13.40;;
2257;SDS011;1136;51.574;7.706;2023-04-06T11:38:38;14.93;;;13.33;;
2257;SDS011;1136;51.574;7.706;2023-04-06T11:41:05;16.97;;;12.13;;
2257;SDS011;1136;51.574;7.706;2023-04-06T11:43:32;14.73;;;12.87;;
2257;SDS011;1136;51.574;7.706;2023-04-06T11:46:00;17.17;;;13.30;;
2257;SDS011;1136;51.574;7.706;2023-04-06T11:48:28;17.63;;;14.70;;
2257;SDS011;1136;51.574;7.706;2023-04-06T11:50:58;23.10;;;17.20;;
2257;SDS011;1136;51.574;7.706;2023-04-06T11:53:29;16.77;;;15.00;;
2257;SDS011;1136;51.574;7.706;2023-04-06T11:55:56;17.17;;;14.77;;
2257;SDS011;1136;51.574;7.706;2023-04-06T11:58:23;18.80;;;15.30;;
2257;SDS011;1136;51.574;7.706;2023-04-06T12:00:50;21.90;;;15.03;;
2257;SDS011;1136;51.574;7.706;2023-04-06T12:03:16;19.33;;;17.43;;
2257;SDS011;1136;51.574;7.706;2023-04-06T12:05:43;20.00;;;16.10;;
2257;SDS011;1136;51.574;7.706;2023-04-06T12:08:10;17.07;;;15.20;;
2257;SDS011;1136;51.574;7.706;2023-04-06T12:10:37;16.47;;;14.37;;
2257;SDS011;1136;51.574;7.706;2023-04-06T12:13:03;18.27;;;14.33;;
2257;SDS011;1136;51.574;7.706;2023-04-06T12:15:30;23.80;;;16.03;;
2257;SDS011;1136;51.574;7.706;2023-04-06T12:17:57;19.43;;;15.50;;
2257;SDS011;1136;51.574;7.706;2023-04-06T12:20:25;17.27;;;13.90;;
2257;SDS011;1136;51.574;7.706;2023-04-06T12:22:53;16.43;;;14.60;;
2257;SDS011;1136;51.574;7.706;2023-04-06T12:25:20;17.13;;;14.10;;
2257;SDS011;1136;51.574;7.706;2023-04-06T12:27:46;16.97;;;13.53;;
2257;SDS011;1136;51.574;7.706;2023-04-06T12:30:15;17.20;;;14.07;;
2257;SDS011;1136;51.574;7.706;2023-04-06T12:32:42;16.37;;;14.10;;
2257;SDS011;1136;51.574;7.706;2023-04-06T12:35:09;18.23;;;15.80;;
2257;SDS011;1136;51.574;7.706;2023-04-06T12:37:37;16.60;;;14.83;;
2257;SDS011;1136;51.574;7.706;2023-04-06T12:40:04;18.63;;;15.33;;
2257;SDS011;1136;51.574;7.706;2023-04-06T12:42:31;18.53;;;16.30;;
2257;SDS011;1136;51.574;7.706;2023-04-06T12:44:59;22.27;;;15.53;;
2257;SDS011;1136;51.574;7.706;2023-04-06T12:47:26;18.43;;;15.10;;
2257;SDS011;1136;51.574;7.706;2023-04-06T12:49:54;22.17;;;15.47;;
2257;SDS011;1136;51.574;7.706;2023-04-06T12:52:21;17.60;;;15.77;;
2257;SDS011;1136;51.574;7.706;2023-04-06T12:54:47;20.67;;;16.80;;
2257;SDS011;1136;51.574;7.706;2023-04-06T12:57:16;19.57;;;15.63;;
2257;SDS011;1136;51.574;7.706;2023-04-06T12:59:43;21.40;;;16.53;;
2257;SDS011;1136;51.574;7.706;2023-04-06T13:02:11;24.03;;;16.90;;
2257;SDS011;1136;51.574;7.706;2023-04-06T13:04:38;17.43;;;15.50;;
2257;SDS011;1136;51.574;7.706;2023-04-06T13:07:05;17.33;;;15.50;;
2257;SDS011;1136;51.574;7.706;2023-04-06T13:09:32;20.73;;;15.90;;
2257;SDS011;1136;51.574;7.706;2023-04-06T13:11:59;18.70;;;15.17;;
2257;SDS011;1136;51.574;7.706;2023-04-06T13:14:27;20.17;;;15.50;;
2257;SDS011;1136;51.574;7.706;2023-04-06T13:16:54;18.33;;;15.37;;
2257;SDS011;1136;51.574;7.706;2023-04-06T13:19:21;18.20;;;15.70;;
2257;SDS011;1136;51.574;7.706;2023-04-06T13:21:48;17.27;;;15.10;;
2257;SDS011;1136;51.574;7.706;2023-04-06T13:24:15;18.70;;;15.73;;
2257;SDS011;1136;51.574;7.706;2023-04-06T13:26:43;16.87;;;13.57;;
2257;SDS011;1136;51.574;7.706;2023-04-06T13:29:10;15.80;;;13.23;;
2257;SDS011;1136;51.574;7.706;2023-04-06T13:31:37;14.43;;;12.93;;
2257;SDS011;1136;51.574;7.706;2023-04-06T13:34:05;13.50;;;11.20;;
2257;SDS011;1136;51.574;7.706;2023-04-06T13:36:32;15.67;;;12.83;;
2257;SDS011;1136;51.574;7.706;2023-04-06T13:38:59;17.10;;;11.90;;
2257;SDS011;1136;51.574;7.706;2023-04-06T13:41:26;13.53;;;11.47;;
2257;SDS011;1136;51.574;7.706;2023-04-06T13:43:53;12.83;;;11.53;;
2257;SDS011;1136;51.574;7.706;2023-04-06T13:46:19;16.70;;;11.77;;
2257;SDS011;1136;51.574;7.706;2023-04-06T13:48:46;13.13;;;11.70;;
2257;SDS011;1136;51.574;7.706;2023-04-06T13:51:13;14.57;;;12.20;;
2257;SDS011;1136;51.574;7.706;2023-04-06T13:53:41;14.90;;;13.30;;
2257;SDS011;1136;51.574;7.706;2023-04-06T13:56:07;13.33;;;12.00;;
2257;SDS011;1136;51.574;7.706;2023-04-06T13:58:34;14.33;;;12.83;;
2257;SDS011;1136;51.574;7.706;2023-04-06T14:01:03;12.20;;;11.00;;
2257;SDS011;1136;51.574;7.706;2023-04-06T14:03:34;13.40;;;12.10;;
2257;SDS011;1136;51.574;7.706;2023-04-06T14:06:01;14.97;;;12.40;;
2257;SDS011;1136;51.574;7.706;2023-04-06T14:08:41;14.90;;;11.43;;
2257;SDS011;1136;51.574;7.706;2023-04-06T14:11:11;12.97;;;11.60;;
2257;SDS011;1136;51.574;7.706;2023-04-06T14:13:38;12.67;;;11.47;;
2257;SDS011;1136;51.574;7.706;2023-04-06T14:16:05;16.73;;;11.80;;
2257;SDS011;1136;51.574;7.706;2023-04-06T14:18:33;13.37;;;11.50;;
2257;SDS011;1136;51.574;7.706;2023-04-06T14:21:00;14.57;;;12.10;;
2257;SDS011;1136;51.574;7.706;2023-04-06T14:23:27;14.30;;;11.10;;
2257;SDS011;1136;51.574;7.706;2023-04-06T14:26:03;11.80;;;10.60;;
2257;SDS011;1136;51.574;7.706;2023-04-06T14:28:34;13.23;;;11.83;;
2257;SDS011;1136;51.574;7.706;2023-04-06T14:31:08;11.90;;;10.70;;
2257;SDS011;1136;51.574;7.706;2023-04-06T14:33:36;13.67;;;11.17;;
2257;SDS011;1136;51.574;7.706;2023-04-06T14:36:03;12.10;;;10.90;;
2257;SDS011;1136;51.574;7.706;2023-04-06T14:38:31;14.67;;;11.93;;
2257;SDS011;1136;51.574;7.706;2023-04-06T14:41:01;13.13;;;10.50;;
2257;SDS011;1136;51.574;7.706;2023-04-06T14:43:28;11.87;;;9.83;;
2257;SDS011;1136;51.574;7.706;2023-04-06T14:45:54;10.47;;;9.37;;
2257;SDS011;1136;51.574;7.706;2023-04-06T14:48:26;8.60;;;7.77;;
2257;SDS011;1136;51.574;7.706;2023-04-06T14:50:53;8.23;;;7.33;;
2257;SDS011;1136;51.574;7.706;2023-04-06T14:53:21;7.50;;;6.77;;
2257;SDS011;1136;51.574;7.706;2023-04-06T14:55:48;7.20;;;6.50;;
2257;SDS011;1136;51.574;7.706;2023-04-06T14:58:18;12.50;;;7.93;;
2257;SDS011;1136;51.574;7.706;2023-04-06T15:00:45;7.83;;;6.83;;
2257;SDS011;1136;51.574;7.706;2023-04-06T15:03:12;7.63;;;6.50;;